Peter Mac — WDC9573 — position and weather

sailwx.info

Track history (hours):
 
Tides and Currents Weather Stations Pressure Air Temp Water Temp Dewpoint Dewpoint Depression Visibility Wind Speed Wind Dir Waves Ship Positions

Peter Mac

Owner: So Cal Ship Services inc., TERMINAL ISLAND, CA. More information available from US FCC via Universal Licensing System and Coast Guard Vessel Documentation Center.

Last reported at 2017-Oct-19 22:59 UTC. Time now 2017-Oct-22 10:28 UTC.
Position N 33°43' W 118°05'.

Length 27 m.

Type: Other ship. MMSI: 367104080.

Date/timePositionNaut miles runAvg speedWind from/ knotsBaromVisibWave heightAir tempDewpointWater temp
2017-Oct-19 22:59N 33°43' W 118°05'4 2.1
2017-Oct-19 21:10N 33°40' W 118°03'0 0.0
2017-Oct-19 20:59N 33°40' W 118°03'8 2.9
2017-Oct-19 18:14N 33°43' W 118°11'415.3
2017-Oct-19 17:59N 33°43' W 118°16'1 1.6
2017-Oct-19 17:29N 33°44' W 118°16'3 3.2
2017-Oct-19 16:36N 33°43' W 118°13'315.6
2017-Oct-19 16:26N 33°43' W 118°10'7 8.9
2017-Oct-19 15:42N 33°40' W 118°03'0 0.0
2017-Oct-19 15:16N 33°40' W 118°03'8 0.2
2017-Oct-17 23:09N 33°43' W 118°12'314.8
2017-Oct-17 22:57N 33°43' W 118°08'6 9.0
2017-Oct-17 22:19N 33°40' W 118°03'0 0.5
2017-Oct-17 22:00N 33°40' W 118°03'0 0.0
2017-Oct-17 21:30N 33°40' W 118°03'0 0.0
2017-Oct-17 21:00N 33°40' W 118°03'2 3.2
2017-Oct-17 20:24N 33°41' W 118°04'2 5.9
2017-Oct-17 20:00N 33°43' W 118°06'4 5.9
2017-Oct-17 19:24N 33°40' W 118°04'714.9
2017-Oct-17 18:56N 33°42' W 118°12'510.7
2017-Oct-17 18:30N 33°44' W 118°16'0 0.0
2017-Oct-17 18:00N 33°44' W 118°16'4 8.6
2017-Oct-17 17:30N 33°44' W 118°11'5 9.7
2017-Oct-17 16:58N 33°42' W 118°05'3 4.4
2017-Oct-17 16:15N 33°40' W 118°03'0 0.0
2017-Oct-17 15:43N 33°40' W 118°03'0 0.3
2017-Oct-17 15:10N 33°40' W 118°03'0 1.0
2017-Oct-17 15:00N 33°40' W 118°03'0 0.0
2017-Oct-17 14:30N 33°40' W 118°03'0 0.0
2017-Oct-17 13:58N 33°40' W 118°03'1 1.9
2017-Oct-17 13:30N 33°40' W 118°03'5 9.3
2017-Oct-17 13:00N 33°44' W 118°07'  
2017-Oct-13 00:54N 33°44' W 118°16'0 0.1
2017-Oct-13 00:28N 33°44' W 118°16'3 6.7
2017-Oct-13 00:00N 33°43' W 118°13'6 4.5
2017-Oct-12 22:36N 33°42' W 118°05'316.2
2017-Oct-12 22:26N 33°40' W 118°03'1 1.1
2017-Oct-12 21:55N 33°40' W 118°03'0 0.0
2017-Oct-12 21:28N 33°40' W 118°03'0 0.0
2017-Oct-12 20:49N 33°40' W 118°03'0 0.0
2017-Oct-12 20:24N 33°40' W 118°03'0 0.0
2017-Oct-12 20:00N 33°40' W 118°03'0 0.0
2017-Oct-12 19:30N 33°40' W 118°03'0 0.0
2017-Oct-12 18:59N 33°40' W 118°03'0 0.0
2017-Oct-12 18:27N 33°40' W 118°03'4 7.0
2017-Oct-12 17:55N 33°43' W 118°05'3 6.1
2017-Oct-12 17:24N 33°40' W 118°03'1 1.1
2017-Oct-12 16:52N 33°40' W 118°03'0 0.0
2017-Oct-12 16:28N 33°40' W 118°03'0 0.0
2017-Oct-12 15:59N 33°40' W 118°03'2 0.9
2017-Oct-12 13:58N 33°41' W 118°04'2 3.2
2017-Oct-12 13:27N 33°40' W 118°03'510.3
2017-Oct-12 12:55N 33°44' W 118°07'715.2
2017-Oct-12 12:29N 33°43' W 118°15'2 3.3
2017-Oct-12 11:55N 33°44' W 118°16'0 0.0
2017-Oct-10 23:42N 33°44' W 118°16'0 0.1
2017-Oct-10 23:30N 33°44' W 118°16'611.9
2017-Oct-10 23:01N 33°44' W 118°09'611.6
2017-Oct-10 22:30N 33°41' W 118°03'1 2.2
2017-Oct-10 22:00N 33°40' W 118°03'0 0.0
2017-Oct-10 21:30N 33°40' W 118°03'1 1.7
2017-Oct-10 21:01N 33°40' W 118°03'816.5
2017-Oct-10 20:30N 33°41' W 118°13'4 8.2
2017-Oct-10 20:00N 33°44' W 118°16'0 0.2
2017-Oct-10 19:31N 33°44' W 118°16'2 3.7
2017-Oct-10 19:00N 33°43' W 118°14'713.4
2017-Oct-10 18:31N 33°44' W 118°06'611.0
2017-Oct-10 18:00N 33°40' W 118°03'0 0.0
2017-Oct-10 17:30N 33°40' W 118°03'0 0.0
2017-Oct-10 17:00N 33°40' W 118°03'0 0.0
2017-Oct-10 16:30N 33°40' W 118°03'0 0.3
2017-Oct-10 16:00N 33°40' W 118°03'0 0.0
2017-Oct-10 15:30N 33°40' W 118°03'510.8
2017-Oct-10 15:00N 33°44' W 118°06'6 5.6
2017-Oct-10 14:00N 33°40' W 118°03'4 7.1
2017-Oct-10 13:30N 33°42' W 118°05'5 9.3
2017-Oct-10 13:00N 33°44' W 118°11'4 8.8
2017-Oct-10 12:30N 33°43' W 118°16'1 2.0
2017-Oct-10 12:00N 33°44' W 118°16'  
Track history (hours):
 
Tides and Currents Weather Stations Pressure Air Temp Water Temp Dewpoint Dewpoint Depression Visibility Wind Speed Wind Dir Waves Ship Positions

Peter Mac

Owner: So Cal Ship Services inc., TERMINAL ISLAND, CA. More information available from US FCC via Universal Licensing System and Coast Guard Vessel Documentation Center.

Last reported at 2017-Oct-19 22:59 UTC. Time now 2017-Oct-22 10:28 UTC.
Position N 33°43' W 118°05'.

Length 27 m.

Type: Other ship. MMSI: 367104080.

Date/timePositionNaut miles runAvg speedWind from/ knotsBaromVisibWave heightAir tempDewpointWater temp
2017-Oct-19 22:59N 33°43' W 118°05'4 2.1
2017-Oct-19 21:10N 33°40' W 118°03'0 0.0
2017-Oct-19 20:59N 33°40' W 118°03'8 2.9
2017-Oct-19 18:14N 33°43' W 118°11'415.3
2017-Oct-19 17:59N 33°43' W 118°16'1 1.6
2017-Oct-19 17:29N 33°44' W 118°16'3 3.2
2017-Oct-19 16:36N 33°43' W 118°13'315.6
2017-Oct-19 16:26N 33°43' W 118°10'7 8.9
2017-Oct-19 15:42N 33°40' W 118°03'0 0.0
2017-Oct-19 15:16N 33°40' W 118°03'8 0.2
2017-Oct-17 23:09N 33°43' W 118°12'314.8
2017-Oct-17 22:57N 33°43' W 118°08'6 9.0
2017-Oct-17 22:19N 33°40' W 118°03'0 0.5
2017-Oct-17 22:00N 33°40' W 118°03'0 0.0
2017-Oct-17 21:30N 33°40' W 118°03'0 0.0
2017-Oct-17 21:00N 33°40' W 118°03'2 3.2
2017-Oct-17 20:24N 33°41' W 118°04'2 5.9
2017-Oct-17 20:00N 33°43' W 118°06'4 5.9
2017-Oct-17 19:24N 33°40' W 118°04'714.9
2017-Oct-17 18:56N 33°42' W 118°12'510.7
2017-Oct-17 18:30N 33°44' W 118°16'0 0.0
2017-Oct-17 18:00N 33°44' W 118°16'4 8.6
2017-Oct-17 17:30N 33°44' W 118°11'5 9.7
2017-Oct-17 16:58N 33°42' W 118°05'3 4.4
2017-Oct-17 16:15N 33°40' W 118°03'0 0.0
2017-Oct-17 15:43N 33°40' W 118°03'0 0.3
2017-Oct-17 15:10N 33°40' W 118°03'0 1.0
2017-Oct-17 15:00N 33°40' W 118°03'0 0.0
2017-Oct-17 14:30N 33°40' W 118°03'0 0.0
2017-Oct-17 13:58N 33°40' W 118°03'1 1.9
2017-Oct-17 13:30N 33°40' W 118°03'5 9.3
2017-Oct-17 13:00N 33°44' W 118°07'  
2017-Oct-13 00:54N 33°44' W 118°16'0 0.1
2017-Oct-13 00:28N 33°44' W 118°16'3 6.7
2017-Oct-13 00:00N 33°43' W 118°13'6 4.5
2017-Oct-12 22:36N 33°42' W 118°05'316.2
2017-Oct-12 22:26N 33°40' W 118°03'1 1.1
2017-Oct-12 21:55N 33°40' W 118°03'0 0.0
2017-Oct-12 21:28N 33°40' W 118°03'0 0.0
2017-Oct-12 20:49N 33°40' W 118°03'0 0.0
2017-Oct-12 20:24N 33°40' W 118°03'0 0.0
2017-Oct-12 20:00N 33°40' W 118°03'0 0.0
2017-Oct-12 19:30N 33°40' W 118°03'0 0.0
2017-Oct-12 18:59N 33°40' W 118°03'0 0.0
2017-Oct-12 18:27N 33°40' W 118°03'4 7.0
2017-Oct-12 17:55N 33°43' W 118°05'3 6.1
2017-Oct-12 17:24N 33°40' W 118°03'1 1.1
2017-Oct-12 16:52N 33°40' W 118°03'0 0.0
2017-Oct-12 16:28N 33°40' W 118°03'0 0.0
2017-Oct-12 15:59N 33°40' W 118°03'2 0.9
2017-Oct-12 13:58N 33°41' W 118°04'2 3.2
2017-Oct-12 13:27N 33°40' W 118°03'510.3
2017-Oct-12 12:55N 33°44' W 118°07'715.2
2017-Oct-12 12:29N 33°43' W 118°15'2 3.3
2017-Oct-12 11:55N 33°44' W 118°16'0 0.0
2017-Oct-10 23:42N 33°44' W 118°16'0 0.1
2017-Oct-10 23:30N 33°44' W 118°16'611.9
2017-Oct-10 23:01N 33°44' W 118°09'611.6
2017-Oct-10 22:30N 33°41' W 118°03'1 2.2
2017-Oct-10 22:00N 33°40' W 118°03'0 0.0
2017-Oct-10 21:30N 33°40' W 118°03'1 1.7
2017-Oct-10 21:01N 33°40' W 118°03'816.5
2017-Oct-10 20:30N 33°41' W 118°13'4 8.2
2017-Oct-10 20:00N 33°44' W 118°16'0 0.2
2017-Oct-10 19:31N 33°44' W 118°16'2 3.7
2017-Oct-10 19:00N 33°43' W 118°14'713.4
2017-Oct-10 18:31N 33°44' W 118°06'611.0
2017-Oct-10 18:00N 33°40' W 118°03'0 0.0
2017-Oct-10 17:30N 33°40' W 118°03'0 0.0
2017-Oct-10 17:00N 33°40' W 118°03'0 0.0
2017-Oct-10 16:30N 33°40' W 118°03'0 0.3
2017-Oct-10 16:00N 33°40' W 118°03'0 0.0
2017-Oct-10 15:30N 33°40' W 118°03'510.8
2017-Oct-10 15:00N 33°44' W 118°06'6 5.6
2017-Oct-10 14:00N 33°40' W 118°03'4 7.1
2017-Oct-10 13:30N 33°42' W 118°05'5 9.3
2017-Oct-10 13:00N 33°44' W 118°11'4 8.8
2017-Oct-10 12:30N 33°43' W 118°16'1 2.0
2017-Oct-10 12:00N 33°44' W 118°16'  

Dump ship's entire track history